sensor_id;sensor_type;location;lat;lon;timestamp;P1;durP1;ratioP1;P2;durP2;ratioP2
70806;SDS011;58882;52.170;5.386;2023-10-31T00:00:37;2.08;;;0.70;;
70806;SDS011;58882;52.170;5.386;2023-10-31T00:03:04;2.28;;;0.50;;
70806;SDS011;58882;52.170;5.386;2023-10-31T00:05:31;2.65;;;0.47;;
70806;SDS011;58882;52.170;5.386;2023-10-31T00:07:58;2.95;;;0.65;;
70806;SDS011;58882;52.170;5.386;2023-10-31T00:10:25;3.60;;;0.63;;
70806;SDS011;58882;52.170;5.386;2023-10-31T00:12:52;3.90;;;0.75;;
70806;SDS011;58882;52.170;5.386;2023-10-31T00:15:19;2.75;;;0.85;;
70806;SDS011;58882;52.170;5.386;2023-10-31T00:17:46;5.28;;;0.70;;
70806;SDS011;58882;52.170;5.386;2023-10-31T00:20:13;2.85;;;0.70;;
70806;SDS011;58882;52.170;5.386;2023-10-31T00:22:40;4.80;;;0.57;;
70806;SDS011;58882;52.170;5.386;2023-10-31T00:25:07;2.38;;;0.68;;
70806;SDS011;58882;52.170;5.386;2023-10-31T00:27:34;2.97;;;0.73;;
70806;SDS011;58882;52.170;5.386;2023-10-31T00:30:00;3.88;;;0.85;;
70806;SDS011;58882;52.170;5.386;2023-10-31T00:32:27;4.38;;;0.90;;
70806;SDS011;58882;52.170;5.386;2023-10-31T00:34:54;5.43;;;1.38;;
70806;SDS011;58882;52.170;5.386;2023-10-31T00:37:21;4.70;;;1.20;;
70806;SDS011;58882;52.170;5.386;2023-10-31T00:39:48;4.93;;;1.20;;
70806;SDS011;58882;52.170;5.386;2023-10-31T00:42:15;3.88;;;1.42;;
70806;SDS011;58882;52.170;5.386;2023-10-31T00:44:42;4.80;;;1.80;;
70806;SDS011;58882;52.170;5.386;2023-10-31T00:47:09;6.57;;;1.95;;
70806;SDS011;58882;52.170;5.386;2023-10-31T00:49:36;8.10;;;2.30;;
70806;SDS011;58882;52.170;5.386;2023-10-31T00:52:03;6.70;;;2.80;;
70806;SDS011;58882;52.170;5.386;2023-10-31T00:54:30;5.43;;;2.33;;
70806;SDS011;58882;52.170;5.386;2023-10-31T00:56:57;6.07;;;2.78;;
70806;SDS011;58882;52.170;5.386;2023-10-31T00:59:23;7.18;;;3.03;;
70806;SDS011;58882;52.170;5.386;2023-10-31T01:01:50;8.52;;;3.40;;
70806;SDS011;58882;52.170;5.386;2023-10-31T01:04:17;9.63;;;4.10;;
70806;SDS011;58882;52.170;5.386;2023-10-31T01:06:44;9.57;;;3.45;;
70806;SDS011;58882;52.170;5.386;2023-10-31T01:09:11;9.35;;;3.58;;
70806;SDS011;58882;52.170;5.386;2023-10-31T01:11:39;8.57;;;3.20;;
70806;SDS011;58882;52.170;5.386;2023-10-31T01:14:06;7.70;;;2.92;;
70806;SDS011;58882;52.170;5.386;2023-10-31T01:16:33;9.05;;;3.25;;
70806;SDS011;58882;52.170;5.386;2023-10-31T01:18:59;8.95;;;3.38;;
70806;SDS011;58882;52.170;5.386;2023-10-31T01:21:27;8.50;;;3.13;;
70806;SDS011;58882;52.170;5.386;2023-10-31T01:23:53;7.07;;;3.13;;
70806;SDS011;58882;52.170;5.386;2023-10-31T01:26:20;9.23;;;3.10;;
70806;SDS011;58882;52.170;5.386;2023-10-31T01:28:47;7.07;;;2.92;;
70806;SDS011;58882;52.170;5.386;2023-10-31T01:31:15;7.32;;;3.05;;
70806;SDS011;58882;52.170;5.386;2023-10-31T01:33:42;7.78;;;2.92;;
70806;SDS011;58882;52.170;5.386;2023-10-31T01:36:09;8.35;;;3.25;;
70806;SDS011;58882;52.170;5.386;2023-10-31T01:38:38;8.20;;;3.30;;
70806;SDS011;58882;52.170;5.386;2023-10-31T01:41:05;7.18;;;3.00;;
70806;SDS011;58882;52.170;5.386;2023-10-31T01:43:36;7.47;;;2.75;;
70806;SDS011;58882;52.170;5.386;2023-10-31T01:46:03;8.75;;;2.80;;
70806;SDS011;58882;52.170;5.386;2023-10-31T01:48:32;7.55;;;2.50;;
70806;SDS011;58882;52.170;5.386;2023-10-31T01:50:59;6.03;;;2.42;;
70806;SDS011;58882;52.170;5.386;2023-10-31T01:53:29;8.10;;;2.33;;
70806;SDS011;58882;52.170;5.386;2023-10-31T01:56:03;6.38;;;2.30;;
70806;SDS011;58882;52.170;5.386;2023-10-31T01:58:32;4.85;;;1.90;;
70806;SDS011;58882;52.170;5.386;2023-10-31T02:01:00;11.07;;;2.50;;
70806;SDS011;58882;52.170;5.386;2023-10-31T02:03:28;6.68;;;2.28;;
70806;SDS011;58882;52.170;5.386;2023-10-31T02:05:55;5.72;;;2.40;;
70806;SDS011;58882;52.170;5.386;2023-10-31T02:08:24;5.20;;;2.42;;
70806;SDS011;58882;52.170;5.386;2023-10-31T02:10:51;6.93;;;2.67;;
70806;SDS011;58882;52.170;5.386;2023-10-31T02:13:18;9.02;;;2.97;;
70806;SDS011;58882;52.170;5.386;2023-10-31T02:15:45;7.53;;;2.90;;
70806;SDS011;58882;52.170;5.386;2023-10-31T02:18:13;7.18;;;2.80;;
70806;SDS011;58882;52.170;5.386;2023-10-31T02:20:40;7.85;;;2.60;;
70806;SDS011;58882;52.170;5.386;2023-10-31T02:23:07;8.30;;;2.78;;
70806;SDS011;58882;52.170;5.386;2023-10-31T02:25:35;9.85;;;3.15;;
70806;SDS011;58882;52.170;5.386;2023-10-31T02:28:02;8.98;;;3.10;;
70806;SDS011;58882;52.170;5.386;2023-10-31T02:30:29;8.88;;;3.30;;
70806;SDS011;58882;52.170;5.386;2023-10-31T02:32:55;8.32;;;3.80;;
70806;SDS011;58882;52.170;5.386;2023-10-31T02:35:22;11.15;;;3.88;;
70806;SDS011;58882;52.170;5.386;2023-10-31T02:37:49;9.55;;;3.90;;
70806;SDS011;58882;52.170;5.386;2023-10-31T02:40:17;7.60;;;3.40;;
70806;SDS011;58882;52.170;5.386;2023-10-31T02:42:44;8.00;;;3.63;;
70806;SDS011;58882;52.170;5.386;2023-10-31T02:45:11;9.93;;;3.65;;
70806;SDS011;58882;52.170;5.386;2023-10-31T02:47:38;7.38;;;3.55;;
70806;SDS011;58882;52.170;5.386;2023-10-31T02:50:05;6.80;;;3.33;;
70806;SDS011;58882;52.170;5.386;2023-10-31T02:52:33;8.13;;;3.13;;
70806;SDS011;58882;52.170;5.386;2023-10-31T02:54:59;7.82;;;3.10;;
70806;SDS011;58882;52.170;5.386;2023-10-31T02:57:26;8.10;;;3.03;;
70806;SDS011;58882;52.170;5.386;2023-10-31T02:59:53;7.07;;;3.10;;
70806;SDS011;58882;52.170;5.386;2023-10-31T03:02:20;7.82;;;3.00;;
70806;SDS011;58882;52.170;5.386;2023-10-31T03:04:47;7.15;;;2.60;;
70806;SDS011;58882;52.170;5.386;2023-10-31T03:07:14;7.47;;;2.72;;
70806;SDS011;58882;52.170;5.386;2023-10-31T03:09:41;6.57;;;2.40;;
70806;SDS011;58882;52.170;5.386;2023-10-31T03:12:07;6.90;;;2.60;;
70806;SDS011;58882;52.170;5.386;2023-10-31T03:14:34;7.35;;;2.30;;
70806;SDS011;58882;52.170;5.386;2023-10-31T03:17:01;4.30;;;2.08;;
70806;SDS011;58882;52.170;5.386;2023-10-31T03:19:28;5.30;;;2.25;;
70806;SDS011;58882;52.170;5.386;2023-10-31T03:21:55;6.72;;;2.50;;
70806;SDS011;58882;52.170;5.386;2023-10-31T03:24:22;8.50;;;2.53;;
70806;SDS011;58882;52.170;5.386;2023-10-31T03:26:49;6.93;;;2.25;;
70806;SDS011;58882;52.170;5.386;2023-10-31T03:29:16;6.05;;;2.30;;
70806;SDS011;58882;52.170;5.386;2023-10-31T03:31:43;5.80;;;2.30;;
70806;SDS011;58882;52.170;5.386;2023-10-31T03:34:10;6.10;;;2.72;;
70806;SDS011;58882;52.170;5.386;2023-10-31T03:36:36;5.95;;;2.40;;
70806;SDS011;58882;52.170;5.386;2023-10-31T03:39:03;6.15;;;2.40;;
70806;SDS011;58882;52.170;5.386;2023-10-31T03:41:30;8.20;;;2.40;;
70806;SDS011;58882;52.170;5.386;2023-10-31T03:43:57;5.72;;;2.13;;
70806;SDS011;58882;52.170;5.386;2023-10-31T03:46:24;5.85;;;2.00;;
70806;SDS011;58882;52.170;5.386;2023-10-31T03:48:50;5.22;;;1.90;;
70806;SDS011;58882;52.170;5.386;2023-10-31T03:51:17;5.80;;;1.92;;
70806;SDS011;58882;52.170;5.386;2023-10-31T03:53:44;4.60;;;1.63;;
70806;SDS011;58882;52.170;5.386;2023-10-31T03:56:11;3.33;;;1.40;;
70806;SDS011;58882;52.170;5.386;2023-10-31T03:58:40;5.80;;;1.40;;
70806;SDS011;58882;52.170;5.386;2023-10-31T04:01:09;6.28;;;1.45;;
70806;SDS011;58882;52.170;5.386;2023-10-31T04:03:35;4.20;;;1.10;;
70806;SDS011;58882;52.170;5.386;2023-10-31T04:06:02;5.97;;;1.13;;
70806;SDS011;58882;52.170;5.386;2023-10-31T04:08:30;4.18;;;0.85;;
70806;SDS011;58882;52.170;5.386;2023-10-31T04:10:56;3.75;;;0.85;;
70806;SDS011;58882;52.170;5.386;2023-10-31T04:13:23;3.45;;;0.80;;
70806;SDS011;58882;52.170;5.386;2023-10-31T04:15:50;1.50;;;0.60;;
70806;SDS011;58882;52.170;5.386;2023-10-31T04:18:17;2.53;;;0.80;;
70806;SDS011;58882;52.170;5.386;2023-10-31T04:20:45;3.35;;;0.50;;
70806;SDS011;58882;52.170;5.386;2023-10-31T04:23:12;3.78;;;0.75;;
70806;SDS011;58882;52.170;5.386;2023-10-31T04:25:39;2.65;;;0.50;;
70806;SDS011;58882;52.170;5.386;2023-10-31T04:28:06;1.70;;;0.50;;
70806;SDS011;58882;52.170;5.386;2023-10-31T04:30:33;4.07;;;0.70;;
70806;SDS011;58882;52.170;5.386;2023-10-31T04:33:00;3.35;;;0.47;;
70806;SDS011;58882;52.170;5.386;2023-10-31T04:35:26;1.50;;;0.40;;
70806;SDS011;58882;52.170;5.386;2023-10-31T04:37:53;2.40;;;0.40;;
70806;SDS011;58882;52.170;5.386;2023-10-31T04:40:20;3.20;;;0.60;;
70806;SDS011;58882;52.170;5.386;2023-10-31T04:42:47;3.55;;;0.57;;
70806;SDS011;58882;52.170;5.386;2023-10-31T04:45:14;4.80;;;0.55;;
70806;SDS011;58882;52.170;5.386;2023-10-31T04:47:41;3.88;;;0.50;;
70806;SDS011;58882;52.170;5.386;2023-10-31T04:50:08;1.88;;;0.40;;
70806;SDS011;58882;52.170;5.386;2023-10-31T04:52:36;2.58;;;0.50;;
70806;SDS011;58882;52.170;5.386;2023-10-31T04:55:02;3.50;;;0.50;;
70806;SDS011;58882;52.170;5.386;2023-10-31T04:57:30;2.75;;;0.40;;
70806;SDS011;58882;52.170;5.386;2023-10-31T04:59:57;4.40;;;0.55;;
70806;SDS011;58882;52.170;5.386;2023-10-31T05:02:25;1.55;;;0.40;;
70806;SDS011;58882;52.170;5.386;2023-10-31T05:04:52;3.00;;;0.70;;
70806;SDS011;58882;52.170;5.386;2023-10-31T05:07:19;1.40;;;0.40;;
70806;SDS011;58882;52.170;5.386;2023-10-31T05:09:46;2.45;;;0.43;;
70806;SDS011;58882;52.170;5.386;2023-10-31T05:12:13;0.57;;;0.40;;
70806;SDS011;58882;52.170;5.386;2023-10-31T05:14:40;1.95;;;0.60;;
70806;SDS011;58882;52.170;5.386;2023-10-31T05:17:06;2.15;;;0.60;;
70806;SDS011;58882;52.170;5.386;2023-10-31T05:19:33;0.98;;;0.38;;
70806;SDS011;58882;52.170;5.386;2023-10-31T05:22:00;1.30;;;0.30;;
70806;SDS011;58882;52.170;5.386;2023-10-31T05:24:27;1.85;;;0.47;;
70806;SDS011;58882;52.170;5.386;2023-10-31T05:26:54;3.63;;;0.50;;
70806;SDS011;58882;52.170;5.386;2023-10-31T05:29:20;1.08;;;0.47;;
70806;SDS011;58882;52.170;5.386;2023-10-31T05:31:47;1.58;;;0.50;;
70806;SDS011;58882;52.170;5.386;2023-10-31T05:34:15;4.80;;;0.50;;
70806;SDS011;58882;52.170;5.386;2023-10-31T05:36:41;1.92;;;0.60;;
70806;SDS011;58882;52.170;5.386;2023-10-31T05:39:08;4.30;;;0.60;;
70806;SDS011;58882;52.170;5.386;2023-10-31T05:41:36;1.52;;;0.63;;
70806;SDS011;58882;52.170;5.386;2023-10-31T05:44:02;1.83;;;1.00;;
70806;SDS011;58882;52.170;5.386;2023-10-31T05:46:29;2.40;;;0.93;;
70806;SDS011;58882;52.170;5.386;2023-10-31T05:48:56;2.55;;;0.90;;
70806;SDS011;58882;52.170;5.386;2023-10-31T05:51:23;1.55;;;0.80;;
70806;SDS011;58882;52.170;5.386;2023-10-31T05:56:18;2.28;;;0.90;;
70806;SDS011;58882;52.170;5.386;2023-10-31T05:58:45;1.70;;;0.65;;
70806;SDS011;58882;52.170;5.386;2023-10-31T06:01:12;2.75;;;0.88;;
70806;SDS011;58882;52.170;5.386;2023-10-31T06:03:43;1.58;;;0.70;;
70806;SDS011;58882;52.170;5.386;2023-10-31T06:06:11;2.22;;;0.70;;
70806;SDS011;58882;52.170;5.386;2023-10-31T06:08:39;4.65;;;1.08;;
70806;SDS011;58882;52.170;5.386;2023-10-31T06:11:06;2.47;;;0.90;;
70806;SDS011;58882;52.170;5.386;2023-10-31T06:13:33;2.35;;;0.80;;
70806;SDS011;58882;52.170;5.386;2023-10-31T06:16:00;3.72;;;0.98;;
70806;SDS011;58882;52.170;5.386;2023-10-31T06:18:28;3.65;;;1.13;;
70806;SDS011;58882;52.170;5.386;2023-10-31T06:20:55;3.70;;;1.20;;
70806;SDS011;58882;52.170;5.386;2023-10-31T06:23:22;5.03;;;1.50;;
70806;SDS011;58882;52.170;5.386;2023-10-31T06:25:49;4.72;;;1.70;;
70806;SDS011;58882;52.170;5.386;2023-10-31T06:28:16;3.13;;;1.30;;
70806;SDS011;58882;52.170;5.386;2023-10-31T06:30:43;3.33;;;1.48;;
70806;SDS011;58882;52.170;5.386;2023-10-31T06:33:10;5.72;;;1.75;;
70806;SDS011;58882;52.170;5.386;2023-10-31T06:35:38;3.63;;;1.73;;
70806;SDS011;58882;52.170;5.386;2023-10-31T06:38:05;6.63;;;2.25;;
70806;SDS011;58882;52.170;5.386;2023-10-31T06:40:32;4.82;;;1.73;;
70806;SDS011;58882;52.170;5.386;2023-10-31T06:42:59;4.70;;;1.90;;
70806;SDS011;58882;52.170;5.386;2023-10-31T06:45:25;5.80;;;2.00;;
70806;SDS011;58882;52.170;5.386;2023-10-31T06:47:53;5.47;;;2.20;;
70806;SDS011;58882;52.170;5.386;2023-10-31T06:50:20;5.25;;;2.05;;
70806;SDS011;58882;52.170;5.386;2023-10-31T06:52:47;6.55;;;2.30;;
70806;SDS011;58882;52.170;5.386;2023-10-31T06:55:14;5.15;;;2.00;;
70806;SDS011;58882;52.170;5.386;2023-10-31T06:57:41;5.75;;;2.20;;
70806;SDS011;58882;52.170;5.386;2023-10-31T07:00:10;7.38;;;2.05;;
70806;SDS011;58882;52.170;5.386;2023-10-31T07:02:38;5.93;;;1.10;;
70806;SDS011;58882;52.170;5.386;2023-10-31T07:05:06;8.30;;;1.25;;
70806;SDS011;58882;52.170;5.386;2023-10-31T07:07:33;2.80;;;0.90;;
70806;SDS011;58882;52.170;5.386;2023-10-31T07:10:00;3.22;;;1.02;;
70806;SDS011;58882;52.170;5.386;2023-10-31T07:12:27;5.05;;;0.90;;
70806;SDS011;58882;52.170;5.386;2023-10-31T07:14:54;3.40;;;0.90;;
70806;SDS011;58882;52.170;5.386;2023-10-31T07:17:21;2.92;;;0.80;;
70806;SDS011;58882;52.170;5.386;2023-10-31T07:19:48;3.55;;;0.85;;
70806;SDS011;58882;52.170;5.386;2023-10-31T07:22:15;2.85;;;0.77;;
70806;SDS011;58882;52.170;5.386;2023-10-31T07:24:42;3.65;;;0.90;;
70806;SDS011;58882;52.170;5.386;2023-10-31T07:27:09;2.08;;;0.80;;
70806;SDS011;58882;52.170;5.386;2023-10-31T07:29:38;5.28;;;1.00;;
70806;SDS011;58882;52.170;5.386;2023-10-31T07:32:10;2.28;;;0.80;;
70806;SDS011;58882;52.170;5.386;2023-10-31T07:34:40;1.65;;;0.73;;
70806;SDS011;58882;52.170;5.386;2023-10-31T07:37:07;3.92;;;0.60;;
70806;SDS011;58882;52.170;5.386;2023-10-31T07:39:34;1.80;;;0.70;;
70806;SDS011;58882;52.170;5.386;2023-10-31T07:42:01;1.83;;;0.70;;
70806;SDS011;58882;52.170;5.386;2023-10-31T07:44:28;0.80;;;0.40;;
70806;SDS011;58882;52.170;5.386;2023-10-31T07:46:55;2.05;;;0.60;;
70806;SDS011;58882;52.170;5.386;2023-10-31T07:49:22;1.60;;;0.50;;
70806;SDS011;58882;52.170;5.386;2023-10-31T07:51:48;2.08;;;0.57;;
70806;SDS011;58882;52.170;5.386;2023-10-31T07:54:15;3.45;;;0.73;;
70806;SDS011;58882;52.170;5.386;2023-10-31T07:56:42;3.97;;;0.70;;
70806;SDS011;58882;52.170;5.386;2023-10-31T07:59:09;1.50;;;0.63;;
70806;SDS011;58882;52.170;5.386;2023-10-31T08:01:37;3.58;;;0.70;;
70806;SDS011;58882;52.170;5.386;2023-10-31T08:04:04;3.88;;;0.63;;
70806;SDS011;58882;52.170;5.386;2023-10-31T08:06:31;4.60;;;0.80;;
70806;SDS011;58882;52.170;5.386;2023-10-31T08:08:58;2.72;;;0.70;;
70806;SDS011;58882;52.170;5.386;2023-10-31T08:11:25;3.08;;;0.60;;
70806;SDS011;58882;52.170;5.386;2023-10-31T08:13:52;2.20;;;0.73;;
70806;SDS011;58882;52.170;5.386;2023-10-31T08:16:19;2.78;;;0.80;;
70806;SDS011;58882;52.170;5.386;2023-10-31T08:18:48;2.05;;;0.65;;
70806;SDS011;58882;52.170;5.386;2023-10-31T08:21:15;2.45;;;0.60;;
70806;SDS011;58882;52.170;5.386;2023-10-31T08:23:42;4.10;;;0.75;;
70806;SDS011;58882;52.170;5.386;2023-10-31T08:26:10;1.48;;;0.70;;
70806;SDS011;58882;52.170;5.386;2023-10-31T08:28:39;2.72;;;0.77;;
70806;SDS011;58882;52.170;5.386;2023-10-31T08:31:07;4.88;;;0.90;;
70806;SDS011;58882;52.170;5.386;2023-10-31T08:33:34;2.15;;;0.80;;
70806;SDS011;58882;52.170;5.386;2023-10-31T08:36:01;3.22;;;0.80;;
70806;SDS011;58882;52.170;5.386;2023-10-31T08:38:28;3.92;;;1.10;;
70806;SDS011;58882;52.170;5.386;2023-10-31T08:40:58;4.32;;;0.95;;
70806;SDS011;58882;52.170;5.386;2023-10-31T08:43:26;3.28;;;1.00;;
70806;SDS011;58882;52.170;5.386;2023-10-31T08:45:53;2.25;;;0.80;;
70806;SDS011;58882;52.170;5.386;2023-10-31T08:48:20;3.90;;;0.90;;
70806;SDS011;58882;52.170;5.386;2023-10-31T08:50:47;2.53;;;1.20;;
70806;SDS011;58882;52.170;5.386;2023-10-31T08:53:14;1.77;;;0.82;;
70806;SDS011;58882;52.170;5.386;2023-10-31T08:55:41;3.90;;;1.02;;
70806;SDS011;58882;52.170;5.386;2023-10-31T08:58:14;4.38;;;1.15;;
70806;SDS011;58882;52.170;5.386;2023-10-31T09:00:41;3.53;;;0.90;;
70806;SDS011;58882;52.170;5.386;2023-10-31T09:03:08;1.95;;;0.95;;
70806;SDS011;58882;52.170;5.386;2023-10-31T09:05:36;3.92;;;1.00;;
70806;SDS011;58882;52.170;5.386;2023-10-31T09:08:02;2.72;;;0.90;;
70806;SDS011;58882;52.170;5.386;2023-10-31T09:10:30;3.88;;;0.90;;
70806;SDS011;58882;52.170;5.386;2023-10-31T09:12:56;2.80;;;1.00;;
70806;SDS011;58882;52.170;5.386;2023-10-31T09:15:23;3.60;;;0.88;;
70806;SDS011;58882;52.170;5.386;2023-10-31T09:17:50;2.67;;;0.90;;
70806;SDS011;58882;52.170;5.386;2023-10-31T09:20:17;4.53;;;1.10;;
70806;SDS011;58882;52.170;5.386;2023-10-31T09:22:44;2.63;;;0.95;;
70806;SDS011;58882;52.170;5.386;2023-10-31T09:25:11;2.35;;;1.10;;
70806;SDS011;58882;52.170;5.386;2023-10-31T09:27:41;2.15;;;0.80;;
70806;SDS011;58882;52.170;5.386;2023-10-31T09:30:08;3.05;;;1.00;;
70806;SDS011;58882;52.170;5.386;2023-10-31T09:32:35;2.33;;;0.93;;
70806;SDS011;58882;52.170;5.386;2023-10-31T09:35:03;4.10;;;1.10;;
70806;SDS011;58882;52.170;5.386;2023-10-31T09:37:30;1.75;;;0.75;;
70806;SDS011;58882;52.170;5.386;2023-10-31T09:39:57;2.65;;;1.00;;
70806;SDS011;58882;52.170;5.386;2023-10-31T09:42:24;3.25;;;0.90;;
70806;SDS011;58882;52.170;5.386;2023-10-31T09:44:51;2.58;;;0.90;;
70806;SDS011;58882;52.170;5.386;2023-10-31T09:47:19;4.30;;;1.05;;
70806;SDS011;58882;52.170;5.386;2023-10-31T09:49:46;2.33;;;0.80;;
70806;SDS011;58882;52.170;5.386;2023-10-31T09:52:14;6.45;;;1.42;;
70806;SDS011;58882;52.170;5.386;2023-10-31T09:54:41;3.20;;;0.93;;
70806;SDS011;58882;52.170;5.386;2023-10-31T09:57:10;1.77;;;0.88;;
70806;SDS011;58882;52.170;5.386;2023-10-31T09:59:37;4.55;;;1.05;;
70806;SDS011;58882;52.170;5.386;2023-10-31T10:02:04;3.92;;;1.02;;
70806;SDS011;58882;52.170;5.386;2023-10-31T10:04:31;5.10;;;1.20;;
70806;SDS011;58882;52.170;5.386;2023-10-31T10:09:27;3.22;;;0.90;;
70806;SDS011;58882;52.170;5.386;2023-10-31T10:11:55;4.18;;;1.00;;
70806;SDS011;58882;52.170;5.386;2023-10-31T10:14:23;2.17;;;0.80;;
70806;SDS011;58882;52.170;5.386;2023-10-31T10:16:50;6.13;;;1.40;;
70806;SDS011;58882;52.170;5.386;2023-10-31T10:19:18;5.10;;;1.10;;
70806;SDS011;58882;52.170;5.386;2023-10-31T10:21:50;3.00;;;0.95;;
70806;SDS011;58882;52.170;5.386;2023-10-31T10:24:19;5.18;;;1.13;;
70806;SDS011;58882;52.170;5.386;2023-10-31T10:26:47;2.50;;;0.90;;
70806;SDS011;58882;52.170;5.386;2023-10-31T10:29:15;3.35;;;1.00;;
70806;SDS011;58882;52.170;5.386;2023-10-31T10:31:42;3.70;;;1.10;;
70806;SDS011;58882;52.170;5.386;2023-10-31T10:34:09;4.07;;;1.00;;
70806;SDS011;58882;52.170;5.386;2023-10-31T10:36:36;4.40;;;1.10;;
70806;SDS011;58882;52.170;5.386;2023-10-31T10:39:04;4.32;;;1.15;;
70806;SDS011;58882;52.170;5.386;2023-10-31T10:44:09;3.58;;;1.00;;
70806;SDS011;58882;52.170;5.386;2023-10-31T10:46:39;3.47;;;1.10;;
70806;SDS011;58882;52.170;5.386;2023-10-31T10:49:07;4.13;;;1.20;;
70806;SDS011;58882;52.170;5.386;2023-10-31T10:51:48;2.60;;;0.90;;
70806;SDS011;58882;52.170;5.386;2023-10-31T10:54:31;4.18;;;1.02;;
70806;SDS011;58882;52.170;5.386;2023-10-31T10:57:09;5.43;;;1.30;;
70806;SDS011;58882;52.170;5.386;2023-10-31T11:00:02;5.47;;;1.30;;
70806;SDS011;58882;52.170;5.386;2023-10-31T11:02:30;3.65;;;1.25;;
70806;SDS011;58882;52.170;5.386;2023-10-31T11:04:58;5.13;;;1.23;;
70806;SDS011;58882;52.170;5.386;2023-10-31T11:07:26;4.03;;;1.20;;
70806;SDS011;58882;52.170;5.386;2023-10-31T11:09:55;4.05;;;1.08;;
70806;SDS011;58882;52.170;5.386;2023-10-31T11:14:51;3.80;;;1.15;;
70806;SDS011;58882;52.170;5.386;2023-10-31T11:17:28;4.10;;;1.02;;
70806;SDS011;58882;52.170;5.386;2023-10-31T11:19:58;3.97;;;0.98;;
70806;SDS011;58882;52.170;5.386;2023-10-31T11:22:25;2.38;;;0.90;;
70806;SDS011;58882;52.170;5.386;2023-10-31T11:25:06;2.53;;;1.00;;
70806;SDS011;58882;52.170;5.386;2023-10-31T11:27:41;3.97;;;1.20;;
70806;SDS011;58882;52.170;5.386;2023-10-31T11:30:30;7.13;;;1.80;;
70806;SDS011;58882;52.170;5.386;2023-10-31T11:33:00;4.30;;;1.63;;
70806;SDS011;58882;52.170;5.386;2023-10-31T11:35:34;3.70;;;1.63;;
70806;SDS011;58882;52.170;5.386;2023-10-31T11:38:02;6.25;;;1.73;;
70806;SDS011;58882;52.170;5.386;2023-10-31T11:40:32;4.28;;;1.65;;
70806;SDS011;58882;52.170;5.386;2023-10-31T11:43:02;4.63;;;1.40;;
70806;SDS011;58882;52.170;5.386;2023-10-31T11:45:35;3.85;;;1.50;;
70806;SDS011;58882;52.170;5.386;2023-10-31T11:48:04;4.35;;;1.40;;
70806;SDS011;58882;52.170;5.386;2023-10-31T11:50:31;2.63;;;1.15;;
70806;SDS011;58882;52.170;5.386;2023-10-31T11:55:26;3.20;;;1.20;;
70806;SDS011;58882;52.170;5.386;2023-10-31T11:57:53;3.53;;;1.38;;
70806;SDS011;58882;52.170;5.386;2023-10-31T12:00:21;4.47;;;1.35;;
70806;SDS011;58882;52.170;5.386;2023-10-31T12:05:28;4.32;;;1.20;;
70806;SDS011;58882;52.170;5.386;2023-10-31T12:07:56;1.98;;;1.10;;
70806;SDS011;58882;52.170;5.386;2023-10-31T12:10:24;4.50;;;1.40;;
70806;SDS011;58882;52.170;5.386;2023-10-31T12:12:57;3.85;;;1.38;;
70806;SDS011;58882;52.170;5.386;2023-10-31T12:15:25;2.88;;;1.33;;
70806;SDS011;58882;52.170;5.386;2023-10-31T12:17:54;4.32;;;1.52;;
70806;SDS011;58882;52.170;5.386;2023-10-31T12:20:24;5.05;;;1.48;;
70806;SDS011;58882;52.170;5.386;2023-10-31T12:23:01;3.28;;;1.40;;
70806;SDS011;58882;52.170;5.386;2023-10-31T12:25:30;3.45;;;1.40;;
70806;SDS011;58882;52.170;5.386;2023-10-31T12:27:59;4.25;;;1.40;;
70806;SDS011;58882;52.170;5.386;2023-10-31T12:30:26;3.53;;;1.75;;
70806;SDS011;58882;52.170;5.386;2023-10-31T12:32:53;4.05;;;1.80;;
70806;SDS011;58882;52.170;5.386;2023-10-31T12:35:23;4.00;;;1.90;;
70806;SDS011;58882;52.170;5.386;2023-10-31T12:37:52;6.13;;;2.42;;
70806;SDS011;58882;52.170;5.386;2023-10-31T12:40:21;6.85;;;2.75;;
70806;SDS011;58882;52.170;5.386;2023-10-31T12:42:48;7.55;;;3.22;;
70806;SDS011;58882;52.170;5.386;2023-10-31T12:47:44;7.43;;;3.50;;
70806;SDS011;58882;52.170;5.386;2023-10-31T12:50:14;8.43;;;4.32;;
70806;SDS011;58882;52.170;5.386;2023-10-31T12:52:53;8.82;;;4.35;;
70806;SDS011;58882;52.170;5.386;2023-10-31T12:55:21;7.72;;;3.95;;
70806;SDS011;58882;52.170;5.386;2023-10-31T12:57:50;9.77;;;4.97;;
70806;SDS011;58882;52.170;5.386;2023-10-31T13:00:19;9.20;;;4.55;;
70806;SDS011;58882;52.170;5.386;2023-10-31T13:02:58;9.25;;;5.10;;
70806;SDS011;58882;52.170;5.386;2023-10-31T13:05:27;9.13;;;4.47;;
70806;SDS011;58882;52.170;5.386;2023-10-31T13:07:54;11.10;;;4.78;;
70806;SDS011;58882;52.170;5.386;2023-10-31T13:10:23;9.38;;;4.63;;
70806;SDS011;58882;52.170;5.386;2023-10-31T13:12:51;10.82;;;5.35;;
70806;SDS011;58882;52.170;5.386;2023-10-31T13:15:22;9.60;;;5.35;;
70806;SDS011;58882;52.170;5.386;2023-10-31T13:17:50;10.95;;;5.38;;
70806;SDS011;58882;52.170;5.386;2023-10-31T13:20:18;12.95;;;5.60;;
70806;SDS011;58882;52.170;5.386;2023-10-31T13:22:46;11.65;;;5.97;;
70806;SDS011;58882;52.170;5.386;2023-10-31T13:25:13;12.68;;;6.40;;
70806;SDS011;58882;52.170;5.386;2023-10-31T13:27:43;13.13;;;6.20;;
70806;SDS011;58882;52.170;5.386;2023-10-31T13:32:38;13.93;;;7.03;;
70806;SDS011;58882;52.170;5.386;2023-10-31T13:35:05;12.55;;;7.10;;
70806;SDS011;58882;52.170;5.386;2023-10-31T13:37:32;12.35;;;6.95;;
70806;SDS011;58882;52.170;5.386;2023-10-31T13:40:01;12.73;;;6.55;;
70806;SDS011;58882;52.170;5.386;2023-10-31T13:42:29;13.00;;;7.25;;
70806;SDS011;58882;52.170;5.386;2023-10-31T13:44:55;12.82;;;7.22;;
70806;SDS011;58882;52.170;5.386;2023-10-31T13:47:22;12.77;;;7.30;;
70806;SDS011;58882;52.170;5.386;2023-10-31T13:49:49;13.02;;;6.93;;
70806;SDS011;58882;52.170;5.386;2023-10-31T13:52:16;14.80;;;6.70;;
70806;SDS011;58882;52.170;5.386;2023-10-31T13:54:43;12.50;;;6.82;;
70806;SDS011;58882;52.170;5.386;2023-10-31T13:57:10;12.20;;;6.80;;
70806;SDS011;58882;52.170;5.386;2023-10-31T13:59:37;13.15;;;6.90;;
70806;SDS011;58882;52.170;5.386;2023-10-31T14:02:06;11.75;;;7.43;;
70806;SDS011;58882;52.170;5.386;2023-10-31T14:04:33;12.93;;;7.05;;
70806;SDS011;58882;52.170;5.386;2023-10-31T14:07:01;12.30;;;6.78;;
70806;SDS011;58882;52.170;5.386;2023-10-31T14:09:28;11.10;;;6.68;;
70806;SDS011;58882;52.170;5.386;2023-10-31T14:11:57;10.23;;;6.03;;
70806;SDS011;58882;52.170;5.386;2023-10-31T14:14:24;12.18;;;6.22;;
70806;SDS011;58882;52.170;5.386;2023-10-31T14:16:51;11.15;;;6.13;;
70806;SDS011;58882;52.170;5.386;2023-10-31T14:19:17;10.60;;;5.57;;
70806;SDS011;58882;52.170;5.386;2023-10-31T14:21:45;10.85;;;5.97;;
70806;SDS011;58882;52.170;5.386;2023-10-31T14:24:11;9.32;;;5.68;;
70806;SDS011;58882;52.170;5.386;2023-10-31T14:26:39;10.90;;;5.93;;
70806;SDS011;58882;52.170;5.386;2023-10-31T14:29:07;10.23;;;5.95;;
70806;SDS011;58882;52.170;5.386;2023-10-31T14:31:41;9.45;;;5.72;;
70806;SDS011;58882;52.170;5.386;2023-10-31T14:36:35;10.02;;;6.03;;
70806;SDS011;58882;52.170;5.386;2023-10-31T14:39:02;12.50;;;6.65;;
70806;SDS011;58882;52.170;5.386;2023-10-31T14:44:00;9.85;;;6.13;;
70806;SDS011;58882;52.170;5.386;2023-10-31T14:46:28;11.40;;;7.10;;
70806;SDS011;58882;52.170;5.386;2023-10-31T14:48:56;9.80;;;5.90;;
70806;SDS011;58882;52.170;5.386;2023-10-31T14:51:23;11.15;;;6.55;;
70806;SDS011;58882;52.170;5.386;2023-10-31T14:53:50;10.98;;;6.47;;
70806;SDS011;58882;52.170;5.386;2023-10-31T14:56:16;10.45;;;6.90;;
70806;SDS011;58882;52.170;5.386;2023-10-31T14:58:43;11.63;;;7.20;;
70806;SDS011;58882;52.170;5.386;2023-10-31T15:01:10;13.02;;;7.93;;
70806;SDS011;58882;52.170;5.386;2023-10-31T15:03:37;13.90;;;7.70;;
70806;SDS011;58882;52.170;5.386;2023-10-31T15:06:04;12.27;;;8.13;;
70806;SDS011;58882;52.170;5.386;2023-10-31T15:08:33;13.07;;;7.80;;
70806;SDS011;58882;52.170;5.386;2023-10-31T15:11:01;10.90;;;7.45;;
70806;SDS011;58882;52.170;5.386;2023-10-31T15:13:28;13.10;;;8.13;;